Time;durP1;ratioP1;P1;durP2;ratioP2;P2;SDS_P1;SDS_P2;PMS_P1;PMS_P2;Temp;Humidity;BMP_temperature;BMP_pressure;BME280_temperature;BME280_humidity;BME280_pressure;Samples;Min_cycle;Max_cycle;Signal;HPM_P1;HPM_P2
2021/12/31 00:01:49;;;;;;;2.60;1.80;;;10.60;99.90;;;;;;5033316;28;20210;-88
2021/12/31 00:04:15;;;;;;;2.90;1.40;;;10.60;99.90;;;;;;5018007;28;20183;-88
2021/12/31 00:06:52;;;;;;;3.20;1.70;;;10.50;99.90;;;;;;5017001;28;20187;-88
2021/12/31 00:09:18;;;;;;;3.17;1.93;;;10.50;99.90;;;;;;5017501;28;20173;-88
2021/12/31 00:11:44;;;;;;;2.00;1.80;;;10.40;99.90;;;;;;5017677;28;20205;-88
2021/12/31 00:14:09;;;;;;;4.60;2.00;;;10.30;99.90;;;;;;5017262;28;20184;-88
2021/12/31 00:16:35;;;;;;;4.93;2.03;;;10.30;99.90;;;;;;5017130;28;20177;-88
2021/12/31 00:19:01;;;;;;;5.07;1.90;;;10.20;99.90;;;;;;5017315;28;20206;-88
2021/12/31 00:21:32;;;;;;;2.93;1.70;;;10.30;99.90;;;;;;5016991;28;20264;-88
2021/12/31 00:23:58;;;;;;;2.30;1.70;;;10.20;99.90;;;;;;5017209;28;20180;-88
2021/12/31 00:26:24;;;;;;;2.60;1.77;;;10.20;99.90;;;;;;5017222;28;20185;-88
2021/12/31 00:28:50;;;;;;;3.63;1.90;;;10.20;99.90;;;;;;5017138;28;20192;-88
2021/12/31 00:31:16;;;;;;;2.53;1.87;;;10.20;99.90;;;;;;5017247;28;20230;-87
2021/12/31 00:33:42;;;;;;;3.17;2.10;;;10.10;99.90;;;;;;5017142;28;20181;-88
2021/12/31 00:36:08;;;;;;;2.80;1.93;;;10.10;99.90;;;;;;5017353;28;20177;-88
2021/12/31 00:39:24;;;;;;;3.03;2.00;;;10.10;99.90;;;;;;5016246;28;20577;-88
2021/12/31 00:41:50;;;;;;;3.57;1.80;;;10.00;99.90;;;;;;5016707;28;20240;-88
2021/12/31 00:44:16;;;;;;;3.17;1.83;;;10.00;99.90;;;;;;5016952;28;20211;-88
2021/12/31 00:46:42;;;;;;;2.90;1.77;;;10.00;99.90;;;;;;5017318;28;20177;-88
2021/12/31 00:49:08;;;;;;;3.00;2.13;;;9.90;99.90;;;;;;5016566;28;20177;-88
2021/12/31 00:51:35;;;;;;;4.87;2.13;;;9.90;99.90;;;;;;5016462;28;20298;-88
2021/12/31 00:54:01;;;;;;;1.87;1.63;;;9.80;99.90;;;;;;5016930;28;20271;-88
2021/12/31 00:56:27;;;;;;;2.67;1.70;;;9.80;99.90;;;;;;5016676;28;20277;-88
2021/12/31 00:58:53;;;;;;;2.33;1.80;;;9.80;99.90;;;;;;5016528;28;20212;-88
2021/12/31 01:01:22;;;;;;;3.63;1.70;;;9.70;99.90;;;;;;5016667;28;20196;-88
2021/12/31 01:03:49;;;;;;;3.97;1.90;;;9.70;99.90;;;;;;5016693;28;20178;-88
2021/12/31 01:06:15;;;;;;;2.30;2.00;;;9.60;99.90;;;;;;5016683;28;20179;-88
2021/12/31 01:08:41;;;;;;;3.80;2.20;;;9.60;99.90;;;;;;5015817;28;20266;-88
2021/12/31 01:11:08;;;;;;;5.67;2.67;;;9.50;99.90;;;;;;5016127;28;20273;-88
2021/12/31 01:13:51;;;;;;;5.30;3.07;;;9.40;99.90;;;;;;5016621;28;20194;-88
2021/12/31 01:16:19;;;;;;;6.50;2.50;;;9.40;99.90;;;;;;5016552;28;20214;-88
2021/12/31 01:21:21;;;;;;;2.10;1.90;;;9.40;99.90;;;;;;5032817;28;20200;-88
2021/12/31 01:23:50;;;;;;;5.67;2.00;;;9.40;99.90;;;;;;5016041;28;20180;-87
2021/12/31 01:26:17;;;;;;;2.47;1.80;;;9.40;99.90;;;;;;5016384;28;20171;-88
2021/12/31 01:28:44;;;;;;;2.63;2.00;;;9.40;99.90;;;;;;5016001;28;20179;-88
2021/12/31 01:31:10;;;;;;;3.43;1.80;;;9.40;99.90;;;;;;5012833;28;20199;-88
2021/12/31 01:33:36;;;;;;;3.67;2.20;;;9.40;99.90;;;;;;4996125;28;20182;-88
2021/12/31 01:36:04;;;;;;;2.40;1.97;;;9.40;99.90;;;;;;4996240;28;20189;-87
2021/12/31 01:38:31;;;;;;;2.63;2.00;;;9.40;99.90;;;;;;4996182;28;20210;-88
2021/12/31 01:40:57;;;;;;;2.77;1.83;;;9.30;99.90;;;;;;4996170;28;20224;-88
2021/12/31 01:43:23;;;;;;;2.30;1.87;;;9.40;99.90;;;;;;4996508;28;20211;-88
2021/12/31 01:45:55;;;;;;;2.43;2.07;;;9.30;99.90;;;;;;4996047;28;20242;-88
2021/12/31 01:48:33;;;;;;;3.03;1.97;;;9.30;99.90;;;;;;4996226;28;20201;-88
2021/12/31 01:50:59;;;;;;;3.53;1.80;;;9.30;99.90;;;;;;4996286;28;20204;-88
2021/12/31 01:53:26;;;;;;;3.03;1.67;;;9.30;99.90;;;;;;4996429;28;20189;-88
2021/12/31 01:55:56;;;;;;;2.93;1.80;;;9.30;99.90;;;;;;4996040;28;20235;-88
2021/12/31 01:58:35;;;;;;;3.27;1.90;;;9.30;99.90;;;;;;4995567;28;20212;-87
2021/12/31 02:01:04;;;;;;;2.20;1.83;;;9.30;99.90;;;;;;4995783;28;20294;-88
2021/12/31 02:03:31;;;;;;;2.53;1.90;;;9.20;99.90;;;;;;4996310;28;20184;-88
2021/12/31 02:05:58;;;;;;;2.10;1.90;;;9.20;99.90;;;;;;4996003;28;20186;-88
2021/12/31 02:08:37;;;;;;;2.90;2.17;;;9.20;99.90;;;;;;4995481;28;20186;-88
2021/12/31 02:11:03;;;;;;;5.63;2.13;;;9.20;99.90;;;;;;4995896;28;20203;-88
2021/12/31 02:13:29;;;;;;;3.20;2.10;;;9.10;99.90;;;;;;4995978;28;20190;-88
2021/12/31 02:15:55;;;;;;;3.73;2.10;;;9.10;99.90;;;;;;4996254;28;20179;-88
2021/12/31 02:18:21;;;;;;;3.13;2.20;;;9.00;99.90;;;;;;4995576;28;20237;-88
2021/12/31 02:20:58;;;;;;;3.50;2.27;;;8.90;99.90;;;;;;4997889;28;20206;-88
2021/12/31 02:23:27;;;;;;;2.13;1.83;;;8.80;99.90;;;;;;5000004;28;20186;-88
2021/12/31 02:25:54;;;;;;;2.20;2.00;;;8.80;99.90;;;;;;4999698;28;20175;-88
2021/12/31 02:28:20;;;;;;;2.57;2.10;;;8.80;99.90;;;;;;4999518;28;20175;-88
2021/12/31 02:30:47;;;;;;;2.50;2.10;;;8.90;99.90;;;;;;5016043;28;20202;-88
2021/12/31 02:33:13;;;;;;;3.20;1.97;;;8.90;99.90;;;;;;5018591;28;20193;-88
2021/12/31 02:35:40;;;;;;;3.57;2.07;;;8.80;99.90;;;;;;5019157;28;20175;-88
2021/12/31 02:38:07;;;;;;;2.40;1.90;;;8.80;99.90;;;;;;5018686;28;20218;-88
2021/12/31 02:40:34;;;;;;;2.30;1.90;;;8.70;99.90;;;;;;5018883;28;20269;-88
2021/12/31 02:43:01;;;;;;;3.13;2.23;;;8.70;99.90;;;;;;5018980;28;20178;-88
2021/12/31 02:45:32;;;;;;;3.50;2.00;;;8.60;99.90;;;;;;5019105;28;20654;-88
2021/12/31 02:48:02;;;;;;;2.47;2.07;;;8.60;99.90;;;;;;5019079;28;20176;-88
2021/12/31 02:50:35;;;;;;;4.40;1.80;;;8.60;99.90;;;;;;5018495;28;20265;-87
2021/12/31 02:53:07;;;;;;;4.63;2.30;;;8.60;99.90;;;;;;5018917;28;20262;-88
2021/12/31 02:55:36;;;;;;;2.47;1.83;;;8.60;99.90;;;;;;5019142;28;20167;-88
2021/12/31 02:58:03;;;;;;;2.77;2.13;;;8.50;99.90;;;;;;5018469;28;20238;-88
2021/12/31 03:00:30;;;;;;;2.40;1.80;;;8.40;99.90;;;;;;5018781;28;20182;-88
2021/12/31 03:02:59;;;;;;;2.50;2.30;;;8.40;99.90;;;;;;5018888;28;20316;-88
2021/12/31 03:05:28;;;;;;;2.90;1.90;;;8.30;99.90;;;;;;5018638;28;20186;-88
2021/12/31 03:07:55;;;;;;;2.50;2.17;;;8.30;99.90;;;;;;5018682;28;20242;-88
2021/12/31 03:10:26;;;;;;;3.67;2.20;;;8.20;99.90;;;;;;5018427;28;20187;-88
2021/12/31 03:12:54;;;;;;;3.63;2.20;;;8.10;99.90;;;;;;5018463;28;20202;-88
2021/12/31 03:15:20;;;;;;;2.73;1.90;;;8.10;99.90;;;;;;5018276;28;20182;-88
2021/12/31 03:17:46;;;;;;;3.33;2.20;;;8.10;99.90;;;;;;5018054;28;20567;-88
2021/12/31 03:20:24;;;;;;;4.83;2.23;;;8.10;99.90;;;;;;5018573;28;20183;-88
2021/12/31 03:22:50;;;;;;;3.60;2.43;;;8.10;99.90;;;;;;5018396;28;20254;-88
2021/12/31 03:25:16;;;;;;;4.00;2.40;;;8.00;99.90;;;;;;5018511;28;20209;-88
2021/12/31 03:27:42;;;;;;;3.50;2.20;;;8.00;99.90;;;;;;5018047;28;20310;-88
2021/12/31 03:30:10;;;;;;;3.20;2.17;;;7.90;99.90;;;;;;5018132;28;20186;-88
2021/12/31 03:32:36;;;;;;;2.20;1.77;;;7.90;99.90;;;;;;5017584;28;20574;-88
2021/12/31 03:35:03;;;;;;;3.03;2.27;;;7.90;99.90;;;;;;5017979;28;20179;-88
2021/12/31 03:37:28;;;;;;;3.90;2.37;;;7.90;99.90;;;;;;5017784;28;20296;-88
2021/12/31 03:39:54;;;;;;;2.43;2.10;;;7.90;99.90;;;;;;5017911;28;20258;-88
2021/12/31 03:42:20;;;;;;;2.57;2.10;;;7.90;99.90;;;;;;5018019;28;20202;-88
2021/12/31 03:44:46;;;;;;;2.53;2.00;;;7.90;99.90;;;;;;5017970;28;20186;-88
2021/12/31 03:47:12;;;;;;;3.70;2.10;;;7.90;99.90;;;;;;5017868;28;20179;-88
2021/12/31 03:49:38;;;;;;;2.10;1.90;;;7.90;99.90;;;;;;5033932;28;20178;-88
2021/12/31 03:52:04;;;;;;;2.97;1.93;;;7.80;99.90;;;;;;5018049;28;20194;-88
2021/12/31 03:54:30;;;;;;;2.53;2.17;;;7.80;99.90;;;;;;5017707;28;20213;-88
2021/12/31 03:56:56;;;;;;;2.20;1.77;;;7.80;99.90;;;;;;5017893;28;20175;-88
2021/12/31 03:59:21;;;;;;;3.27;2.30;;;7.80;99.90;;;;;;5017312;28;20202;-88
2021/12/31 04:01:47;;;;;;;2.73;2.07;;;7.80;99.90;;;;;;5017441;28;20238;-88
2021/12/31 04:04:13;;;;;;;2.30;2.10;;;7.80;99.90;;;;;;5017494;28;20244;-88
2021/12/31 04:06:40;;;;;;;2.73;1.87;;;7.80;99.90;;;;;;5017676;28;20174;-88
2021/12/31 04:09:06;;;;;;;2.00;1.77;;;7.80;99.90;;;;;;5017156;28;20186;-88
2021/12/31 04:11:33;;;;;;;3.70;2.10;;;7.70;99.90;;;;;;5017637;28;20205;-88
2021/12/31 04:13:58;;;;;;;2.53;2.33;;;7.70;99.90;;;;;;5017587;28;20182;-88
2021/12/31 04:16:24;;;;;;;2.83;2.30;;;7.60;99.90;;;;;;5017357;28;20241;-88
2021/12/31 04:18:51;;;;;;;2.73;2.43;;;7.50;99.90;;;;;;5017191;28;20206;-88
2021/12/31 04:21:19;;;;;;;2.77;2.57;;;7.30;99.90;;;;;;5017515;28;20201;-88
2021/12/31 04:24:03;;;;;;;2.43;2.23;;;7.30;99.90;;;;;;5017418;28;20179;-88
2021/12/31 04:26:29;;;;;;;2.77;2.57;;;7.20;99.90;;;;;;5017372;28;20201;-88
2021/12/31 04:28:56;;;;;;;4.00;2.40;;;7.20;99.90;;;;;;5016860;28;20222;-88
2021/12/31 04:31:22;;;;;;;5.13;2.97;;;7.20;99.90;;;;;;5017172;28;20217;-88
2021/12/31 04:33:48;;;;;;;4.27;2.30;;;7.20;99.90;;;;;;5017180;28;20273;-88
2021/12/31 04:36:14;;;;;;;2.47;2.27;;;7.30;99.90;;;;;;5016901;28;20273;-88
2021/12/31 04:38:40;;;;;;;3.03;2.33;;;7.30;99.90;;;;;;5016926;28;20214;-88
2021/12/31 04:41:06;;;;;;;3.00;2.70;;;7.20;99.90;;;;;;5017130;28;20611;-88
2021/12/31 04:43:32;;;;;;;2.77;2.17;;;7.20;99.90;;;;;;5015804;28;20182;-88
2021/12/31 04:45:58;;;;;;;2.93;2.40;;;7.10;99.90;;;;;;5016751;28;20174;-88
2021/12/31 04:48:26;;;;;;;3.60;2.53;;;7.10;99.90;;;;;;5016313;28;20273;-88
2021/12/31 04:50:52;;;;;;;2.90;2.40;;;7.10;99.90;;;;;;5017132;28;20206;-88
2021/12/31 04:53:18;;;;;;;8.70;3.23;;;7.00;99.90;;;;;;5016495;28;20195;-88
2021/12/31 04:55:44;;;;;;;5.70;3.50;;;7.00;99.90;;;;;;5016448;28;20269;-88
2021/12/31 04:58:10;;;;;;;3.17;2.53;;;7.00;99.90;;;;;;5016367;28;20306;-88
2021/12/31 05:00:40;;;;;;;2.70;2.50;;;6.90;99.90;;;;;;5015890;28;20226;-88
2021/12/31 05:03:10;;;;;;;5.50;2.00;;;6.90;99.90;;;;;;5016562;28;20274;-88
2021/12/31 05:05:37;;;;;;;17.10;2.40;;;6.80;99.90;;;;;;5016449;28;20182;-88
2021/12/31 05:08:04;;;;;;;8.00;2.00;;;6.70;99.90;;;;;;5016491;28;20181;-88
2021/12/31 05:10:31;;;;;;;8.87;2.00;;;6.70;99.90;;;;;;5015814;28;20209;-88
2021/12/31 05:13:02;;;;;;;3.00;2.00;;;6.60;99.90;;;;;;5016599;28;20182;-88
2021/12/31 05:15:32;;;;;;;2.60;2.40;;;6.50;99.90;;;;;;5016536;28;20171;-87
2021/12/31 05:17:58;;;;;;;4.17;2.40;;;6.40;99.90;;;;;;5015896;28;20261;-88
2021/12/31 05:20:24;;;;;;;2.93;2.50;;;6.40;99.90;;;;;;5016337;28;20174;-88
2021/12/31 05:22:52;;;;;;;3.17;2.50;;;6.50;99.90;;;;;;5016064;28;20198;-88
2021/12/31 05:25:19;;;;;;;3.10;2.43;;;6.50;99.90;;;;;;5016077;28;20186;-88
2021/12/31 05:27:45;;;;;;;3.23;2.07;;;6.50;99.90;;;;;;5015981;28;20185;-88
2021/12/31 05:30:11;;;;;;;2.20;2.00;;;6.50;99.90;;;;;;5016336;28;20195;-88
2021/12/31 05:32:37;;;;;;;6.13;2.43;;;6.40;99.90;;;;;;5016152;28;20202;-88
2021/12/31 05:35:04;;;;;;;4.40;1.87;;;6.40;99.90;;;;;;5016307;28;20179;-88
2021/12/31 05:37:30;;;;;;;6.33;2.30;;;6.40;99.90;;;;;;5016042;28;20241;-88
2021/12/31 05:39:55;;;;;;;2.47;1.97;;;6.50;99.90;;;;;;5015854;28;20202;-88
2021/12/31 05:42:21;;;;;;;3.70;2.20;;;6.50;99.90;;;;;;5015854;28;20202;-88
2021/12/31 05:44:48;;;;;;;2.53;2.07;;;6.50;99.90;;;;;;5016189;28;20182;-88
2021/12/31 05:47:14;;;;;;;2.43;2.23;;;6.50;99.90;;;;;;5015757;28;20247;-88
2021/12/31 05:49:40;;;;;;;11.80;2.67;;;6.40;99.90;;;;;;5015511;28;20528;-88
2021/12/31 05:52:07;;;;;;;8.00;2.40;;;6.40;99.90;;;;;;5015565;28;20211;-88
2021/12/31 05:54:33;;;;;;;6.83;2.90;;;6.30;99.90;;;;;;5014961;28;20183;-88
2021/12/31 05:56:59;;;;;;;16.33;3.60;;;6.30;99.90;;;;;;5015810;28;20189;-88
2021/12/31 05:59:24;;;;;;;19.97;3.60;;;6.30;99.90;;;;;;5011901;28;20221;-88
2021/12/31 06:02:14;;;;;;;13.97;3.00;;;6.30;99.90;;;;;;5012167;28;20202;-88
2021/12/31 06:04:40;;;;;;;16.87;3.40;;;6.30;99.90;;;;;;5012278;28;20221;-88
2021/12/31 06:07:05;;;;;;;9.30;2.97;;;6.30;99.90;;;;;;5012525;28;20190;-88
2021/12/31 06:09:32;;;;;;;5.27;3.07;;;6.20;99.90;;;;;;5012053;28;20202;-88
2021/12/31 06:11:59;;;;;;;7.40;3.40;;;6.20;99.90;;;;;;5011994;28;20209;-88
2021/12/31 06:14:25;;;;;;;13.53;4.03;;;6.20;99.90;;;;;;5012191;28;20175;-88
2021/12/31 06:16:51;;;;;;;4.77;3.43;;;6.20;99.90;;;;;;5012093;28;20194;-88
2021/12/31 06:19:17;;;;;;;9.20;3.83;;;6.20;99.90;;;;;;4995422;28;20211;-88
2021/12/31 06:21:46;;;;;;;11.07;3.67;;;6.20;99.90;;;;;;5012078;28;20199;-88
2021/12/31 06:24:12;;;;;;;12.47;3.30;;;6.10;99.90;;;;;;5012113;28;20266;-88
2021/12/31 06:26:37;;;;;;;6.97;3.73;;;6.10;99.90;;;;;;4995742;28;20206;-88
2021/12/31 06:29:04;;;;;;;12.37;4.03;;;6.10;99.90;;;;;;5011957;28;20226;-88
2021/12/31 06:31:30;;;;;;;7.13;3.70;;;6.10;99.90;;;;;;5011836;28;20214;-88
2021/12/31 06:33:56;;;;;;;9.67;4.43;;;6.10;99.90;;;;;;5011852;28;20190;-88
2021/12/31 06:36:22;;;;;;;13.07;6.50;;;6.10;99.90;;;;;;5012004;28;20246;-88
2021/12/31 06:38:52;;;;;;;13.13;5.37;;;6.10;99.90;;;;;;5012022;28;20238;-88
2021/12/31 06:41:20;;;;;;;25.37;4.40;;;6.10;99.90;;;;;;5012038;28;20191;-87
2021/12/31 06:43:45;;;;;;;5.47;3.00;;;6.00;99.90;;;;;;5011834;28;20544;-88
2021/12/31 06:46:11;;;;;;;2.80;2.37;;;5.90;99.90;;;;;;4995360;28;20260;-88
2021/12/31 06:48:37;;;;;;;2.20;1.80;;;5.80;99.90;;;;;;5012013;28;20270;-88
2021/12/31 06:51:03;;;;;;;4.97;2.60;;;5.80;99.90;;;;;;5011705;28;20207;-88
2021/12/31 06:53:33;;;;;;;4.97;3.00;;;5.90;99.90;;;;;;5012460;28;20214;-88
2021/12/31 06:55:59;;;;;;;2.90;2.60;;;5.90;99.90;;;;;;5014294;28;20187;-90
2021/12/31 06:58:25;;;;;;;6.03;4.70;;;6.00;99.90;;;;;;5011480;28;20276;-90
2021/12/31 07:00:51;;;;;;;4.23;2.63;;;5.90;99.90;;;;;;5014783;28;20638;-90
2021/12/31 07:03:20;;;;;;;3.80;2.93;;;6.00;99.90;;;;;;5015354;28;20228;-90
2021/12/31 07:05:47;;;;;;;3.77;2.77;;;6.00;99.90;;;;;;5015334;28;20186;-88
2021/12/31 07:08:20;;;;;;;3.10;2.80;;;6.00;99.90;;;;;;5017164;28;20266;-88
2021/12/31 07:10:46;;;;;;;3.00;2.70;;;6.10;99.90;;;;;;5018679;28;20178;-88
2021/12/31 07:13:12;;;;;;;3.00;2.70;;;6.10;99.90;;;;;;5018845;28;20205;-88
2021/12/31 07:15:44;;;;;;;3.60;3.17;;;6.20;99.90;;;;;;5018175;28;20215;-88
2021/12/31 07:18:11;;;;;;;5.50;2.60;;;6.20;99.90;;;;;;5018345;28;20206;-89
2021/12/31 07:20:40;;;;;;;27.20;4.20;;;6.30;99.90;;;;;;5018302;28;20190;-88
2021/12/31 07:23:07;;;;;;;3.10;2.53;;;6.30;99.90;;;;;;5018168;28;20538;-88
2021/12/31 07:25:34;;;;;;;17.37;3.63;;;6.30;99.90;;;;;;5018395;28;20189;-88
2021/12/31 07:28:00;;;;;;;12.83;3.07;;;6.30;99.90;;;;;;5017858;28;20680;-88
2021/12/31 07:30:26;;;;;;;13.33;2.90;;;6.30;99.90;;;;;;5018253;28;20190;-88
2021/12/31 07:32:52;;;;;;;9.50;3.13;;;6.30;99.90;;;;;;5018276;28;20241;-87
2021/12/31 07:35:19;;;;;;;14.23;3.03;;;6.30;99.90;;;;;;5017944;28;20264;-88
2021/12/31 07:37:45;;;;;;;3.17;2.70;;;6.30;99.90;;;;;;5017811;28;20206;-88
2021/12/31 07:40:12;;;;;;;18.27;3.70;;;6.30;99.90;;;;;;5018113;28;20190;-87
2021/12/31 07:42:39;;;;;;;19.47;4.73;;;6.30;99.90;;;;;;5018040;28;20205;-88
2021/12/31 07:45:17;;;;;;;13.17;6.53;;;6.30;99.90;;;;;;5017320;28;20575;-88
2021/12/31 07:47:44;;;;;;;21.50;6.70;;;6.20;99.90;;;;;;5018058;28;20216;-88
2021/12/31 07:50:11;;;;;;;10.57;6.13;;;6.20;99.90;;;;;;5017961;28;20273;-88
2021/12/31 07:52:38;;;;;;;7.40;4.50;;;6.20;99.90;;;;;;5017696;28;20206;-88
2021/12/31 07:55:05;;;;;;;20.73;8.50;;;6.20;99.90;;;;;;5017841;28;20186;-88
2021/12/31 07:57:31;;;;;;;23.37;9.07;;;6.10;99.90;;;;;;5017477;28;20202;-89
2021/12/31 07:59:56;;;;;;;10.07;5.90;;;6.10;99.90;;;;;;5017558;28;20197;-88
2021/12/31 08:02:22;;;;;;;26.90;4.20;;;6.00;99.90;;;;;;5016434;28;20761;-88
2021/12/31 08:04:48;;;;;;;4.23;2.27;;;6.00;99.90;;;;;;5017623;28;20243;-87
2021/12/31 08:07:14;;;;;;;2.50;2.00;;;6.00;99.90;;;;;;5017280;28;20174;-87
2021/12/31 08:09:44;;;;;;;14.93;3.67;;;6.00;99.90;;;;;;5016706;28;20182;-87
2021/12/31 08:12:10;;;;;;;12.20;2.20;;;5.90;99.90;;;;;;5017801;28;20227;-87
2021/12/31 08:14:36;;;;;;;19.80;3.70;;;5.90;99.90;;;;;;5017730;28;20181;-87
2021/12/31 08:17:01;;;;;;;15.80;3.43;;;5.90;99.90;;;;;;5016089;28;20204;-87
2021/12/31 08:19:30;;;;;;;14.53;3.10;;;6.00;99.90;;;;;;5016843;28;20699;-87
2021/12/31 08:21:56;;;;;;;4.50;2.80;;;6.00;99.90;;;;;;5017479;28;20198;-87
2021/12/31 08:24:26;;;;;;;6.87;3.10;;;6.00;99.90;;;;;;5016749;28;20178;-87
2021/12/31 08:26:52;;;;;;;7.53;3.73;;;6.10;99.90;;;;;;5017658;28;20285;-87
2021/12/31 08:29:18;;;;;;;9.07;4.13;;;6.20;99.90;;;;;;5017255;28;20625;-87
2021/12/31 08:31:45;;;;;;;6.63;4.17;;;6.30;99.90;;;;;;5017190;28;20202;-87
2021/12/31 08:34:11;;;;;;;8.07;4.93;;;6.30;99.90;;;;;;5017292;28;20186;-87
2021/12/31 08:36:38;;;;;;;6.00;4.70;;;6.30;99.90;;;;;;5017034;28;20191;-88
2021/12/31 08:39:07;;;;;;;5.23;4.37;;;6.50;99.90;;;;;;5017059;28;20207;-84
2021/12/31 08:41:34;;;;;;;5.67;3.50;;;6.60;99.90;;;;;;5014995;28;20202;-88
2021/12/31 08:44:00;;;;;;;5.93;3.10;;;6.60;99.90;;;;;;5021963;28;20626;-87
2021/12/31 08:46:26;;;;;;;3.47;3.17;;;6.70;99.90;;;;;;5008595;28;20208;-88
2021/12/31 08:48:52;;;;;;;4.03;3.63;;;6.80;99.90;;;;;;5012442;28;20215;-87
2021/12/31 08:51:19;;;;;;;4.40;3.97;;;6.80;99.90;;;;;;5013888;28;20195;-89
2021/12/31 08:53:47;;;;;;;3.53;2.90;;;6.90;99.90;;;;;;5013152;28;20247;-88
2021/12/31 08:56:13;;;;;;;3.50;3.00;;;6.90;99.90;;;;;;5013103;28;20182;-90
2021/12/31 08:58:43;;;;;;;3.63;3.00;;;7.00;99.90;;;;;;5013083;28;20306;-87
2021/12/31 09:01:09;;;;;;;3.40;3.10;;;7.00;99.90;;;;;;5013597;28;20205;-88
2021/12/31 09:03:34;;;;;;;4.17;3.70;;;7.10;99.90;;;;;;5013293;28;20187;-89
2021/12/31 09:06:01;;;;;;;5.60;4.60;;;7.20;99.90;;;;;;5013367;28;20191;-80
2021/12/31 09:08:27;;;;;;;6.47;5.50;;;7.20;99.90;;;;;;5013783;28;20183;-80
2021/12/31 09:10:53;;;;;;;8.37;5.60;;;7.30;99.90;;;;;;5013060;28;20206;-85
2021/12/31 09:13:19;;;;;;;7.87;6.40;;;7.40;99.90;;;;;;5029618;28;20183;-85
2021/12/31 09:15:45;;;;;;;4.60;4.13;;;7.30;99.90;;;;;;5013583;28;20183;-83
2021/12/31 09:18:11;;;;;;;5.03;3.70;;;7.30;99.90;;;;;;5012750;28;20215;-80
2021/12/31 09:20:37;;;;;;;7.97;3.90;;;7.30;99.90;;;;;;5014515;28;20206;-87
2021/12/31 09:23:03;;;;;;;3.60;2.90;;;7.30;99.90;;;;;;5013646;28;20187;-88
2021/12/31 09:25:29;;;;;;;5.00;3.30;;;7.30;99.90;;;;;;5012819;28;20270;-88
2021/12/31 09:27:54;;;;;;;5.20;3.10;;;7.30;99.90;;;;;;5013815;28;20198;-89
2021/12/31 09:30:20;;;;;;;6.47;3.50;;;7.10;99.90;;;;;;5012127;28;20190;-87
2021/12/31 09:32:46;;;;;;;8.50;3.87;;;7.10;99.90;;;;;;5012619;28;20203;-88
2021/12/31 09:35:12;;;;;;;66.77;6.20;;;7.00;99.90;;;;;;5013010;28;20181;-88
2021/12/31 09:37:39;;;;;;;13.87;3.43;;;6.90;99.90;;;;;;5012703;28;20211;-88
2021/12/31 09:40:06;;;;;;;3.83;3.20;;;6.80;99.90;;;;;;5012621;28;20178;-88
2021/12/31 09:42:32;;;;;;;14.13;4.20;;;6.70;99.90;;;;;;5012375;28;20202;-88
2021/12/31 09:49:16;;;;;;;6.50;4.30;;;6.80;99.90;;;;;;5013823;28;20209;-88
2021/12/31 09:51:43;;;;;;;3.83;3.50;;;7.00;99.90;;;;;;5012479;28;20289;-88
2021/12/31 09:54:10;;;;;;;8.97;3.43;;;7.10;99.90;;;;;;5012699;28;20189;-88
2021/12/31 09:56:41;;;;;;;3.40;3.03;;;7.20;99.90;;;;;;5012668;28;20179;-88
2021/12/31 09:59:08;;;;;;;4.07;2.87;;;7.30;99.90;;;;;;5012085;28;20199;-88
2021/12/31 10:01:47;;;;;;;3.37;3.07;;;7.40;99.90;;;;;;5012329;28;20206;-88
2021/12/31 10:04:13;;;;;;;3.43;2.90;;;7.50;99.90;;;;;;5012416;28;20262;-88
2021/12/31 10:07:10;;;;;;;4.00;3.60;;;7.60;99.90;;;;;;5012133;28;20187;-88
2021/12/31 10:09:40;;;;;;;4.07;3.50;;;7.70;99.90;;;;;;4996070;28;20266;-88
2021/12/31 10:12:08;;;;;;;4.10;3.33;;;7.80;99.90;;;;;;5012264;28;20206;-88
2021/12/31 10:14:39;;;;;;;3.80;3.30;;;7.90;99.90;;;;;;5012456;28;20183;-88
2021/12/31 10:17:06;;;;;;;3.67;3.27;;;8.10;99.90;;;;;;5012602;28;20273;-88
2021/12/31 10:19:32;;;;;;;3.63;3.33;;;8.20;99.90;;;;;;5012265;28;20207;-88
2021/12/31 10:21:58;;;;;;;3.73;3.43;;;8.30;99.90;;;;;;5012433;28;20211;-88
2021/12/31 10:24:38;;;;;;;4.60;3.20;;;8.40;99.90;;;;;;5012581;28;20175;-88
2021/12/31 10:27:12;;;;;;;4.40;4.00;;;8.60;99.90;;;;;;5012078;28;20311;-88
2021/12/31 10:29:58;;;;;;;4.17;3.70;;;8.80;99.90;;;;;;4995929;28;20187;-88
2021/12/31 10:32:27;;;;;;;5.37;4.57;;;9.00;99.90;;;;;;5012034;28;20195;-88
2021/12/31 10:34:53;;;;;;;6.13;4.93;;;9.20;99.90;;;;;;5012332;28;20245;-88
2021/12/31 10:37:45;;;;;;;6.37;5.50;;;9.40;99.90;;;;;;5011576;28;20183;-88
2021/12/31 10:40:12;;;;;;;5.70;5.07;;;9.70;99.90;;;;;;5012457;28;20178;-88
2021/12/31 10:42:40;;;;;;;5.57;4.70;;;10.00;99.90;;;;;;5013921;28;20242;-88
2021/12/31 10:45:07;;;;;;;4.97;4.47;;;10.20;99.90;;;;;;5016094;28;20183;-88
2021/12/31 10:47:47;;;;;;;4.43;4.03;;;10.40;99.90;;;;;;5016119;28;20176;-88
2021/12/31 10:50:19;;;;;;;4.53;3.90;;;10.50;99.90;;;;;;5015924;28;20178;-88
2021/12/31 10:53:12;;;;;;;3.93;3.50;;;10.60;99.90;;;;;;5016425;28;20254;-88
2021/12/31 10:55:41;;;;;;;4.90;3.63;;;10.70;99.90;;;;;;5032627;28;20178;-88
2021/12/31 10:58:12;;;;;;;4.73;4.00;;;10.70;99.90;;;;;;5015656;28;20207;-88
2021/12/31 11:00:40;;;;;;;4.77;3.77;;;10.80;99.90;;;;;;5015531;28;20182;-88
2021/12/31 11:03:07;;;;;;;4.60;3.77;;;10.90;99.90;;;;;;5015809;28;20259;-88
2021/12/31 11:05:34;;;;;;;3.70;3.40;;;11.00;99.90;;;;;;5015375;28;20232;-88
2021/12/31 11:08:02;;;;;;;4.33;3.93;;;11.00;99.90;;;;;;5015932;28;20186;-89
2021/12/31 11:10:35;;;;;;;4.73;3.77;;;11.10;99.90;;;;;;5015540;28;20193;-88
2021/12/31 11:13:06;;;;;;;4.20;3.57;;;11.20;99.90;;;;;;5015801;28;20178;-88
2021/12/31 11:15:32;;;;;;;3.83;3.53;;;11.30;99.90;;;;;;5026640;28;20190;-89
2021/12/31 11:17:58;;;;;;;4.20;3.80;;;11.40;99.90;;;;;;5032253;28;20213;-88
2021/12/31 11:20:26;;;;;;;4.60;3.90;;;11.50;99.90;;;;;;5015139;28;20181;-88
2021/12/31 11:22:52;;;;;;;5.30;4.30;;;11.60;99.90;;;;;;5031932;28;20705;-88
2021/12/31 11:25:18;;;;;;;5.30;4.60;;;11.70;99.90;;;;;;5015022;28;20194;-88
2021/12/31 11:27:47;;;;;;;5.13;3.67;;;12.00;99.90;;;;;;5015148;28;20179;-88
2021/12/31 11:30:28;;;;;;;4.53;3.83;;;12.00;99.90;;;;;;5015261;28;20187;-88
2021/12/31 11:32:57;;;;;;;4.10;3.50;;;12.20;99.90;;;;;;4998887;28;20202;-88
2021/12/31 11:35:44;;;;;;;5.23;3.73;;;12.30;99.90;;;;;;5015129;28;20194;-88
2021/12/31 11:42:08;;;;;;;4.53;3.40;;;12.50;99.90;;;;;;5016045;28;20194;-88
2021/12/31 11:44:37;;;;;;;4.07;3.50;;;12.70;99.90;;;;;;5014733;28;20182;-88
2021/12/31 11:47:14;;;;;;;4.60;3.80;;;12.80;99.90;;;;;;5031094;28;20175;-88
2021/12/31 11:49:41;;;;;;;2.80;2.50;;;12.90;99.90;;;;;;5014695;28;20194;-88
2021/12/31 11:52:56;;;;;;;2.30;1.87;;;13.00;99.90;;;;;;5014635;28;20210;-88
2021/12/31 11:55:22;;;;;;;2.17;1.97;;;13.10;99.90;;;;;;5030833;28;20183;-88
2021/12/31 11:57:49;;;;;;;2.30;1.80;;;13.20;99.90;;;;;;5014198;28;20206;-88
2021/12/31 12:00:27;;;;;;;3.20;1.90;;;13.30;99.90;;;;;;5017723;28;20269;-88
2021/12/31 12:02:54;;;;;;;1.80;1.70;;;13.40;99.90;;;;;;5017616;28;20205;-89
2021/12/31 12:05:22;;;;;;;2.10;1.87;;;13.40;99.90;;;;;;5018531;28;20236;-88
2021/12/31 12:07:52;;;;;;;2.20;2.00;;;13.50;99.90;;;;;;5017810;28;20189;-88
2021/12/31 12:10:26;;;;;;;1.90;1.53;;;13.60;99.90;;;;;;5017496;28;20185;-88
2021/12/31 12:12:56;;;;;;;1.80;1.33;;;13.70;99.90;;;;;;5017356;28;20678;-88
2021/12/31 12:15:30;;;;;;;2.73;1.70;;;13.80;99.90;;;;;;5017477;28;20204;-88
2021/12/31 12:17:57;;;;;;;2.40;1.77;;;13.90;99.90;;;;;;5017200;28;20213;-88
2021/12/31 12:20:33;;;;;;;2.20;1.80;;;14.00;99.90;;;;;;5017232;28;20273;-88
2021/12/31 12:22:58;;;;;;;2.80;2.10;;;14.10;99.90;;;;;;5017721;28;20173;-88
2021/12/31 12:25:30;;;;;;;2.40;2.20;;;14.10;99.90;;;;;;5017669;28;20174;-88
2021/12/31 12:28:07;;;;;;;2.63;2.43;;;14.20;99.90;;;;;;5017114;28;20218;-88
2021/12/31 12:30:37;;;;;;;3.30;3.00;;;14.30;99.90;;;;;;5017053;28;20174;-88
2021/12/31 12:35:40;;;;;;;5.03;4.53;;;14.40;99.90;;;;;;5033585;28;20171;-88
2021/12/31 12:38:36;;;;;;;4.43;3.87;;;14.40;99.90;;;;;;5016319;28;20202;-87
2021/12/31 12:41:09;;;;;;;4.57;2.87;;;14.40;99.90;;;;;;5016972;28;20200;-89
2021/12/31 12:43:44;;;;;;;3.27;2.67;;;14.30;99.90;;;;;;5016958;28;20171;-89
2021/12/31 12:46:13;;;;;;;3.17;2.80;;;14.30;99.90;;;;;;5017333;28;20188;-89
2021/12/31 12:48:39;;;;;;;3.10;2.80;;;14.30;99.90;;;;;;5015863;28;20182;-89
2021/12/31 12:51:35;;;;;;;3.10;2.80;;;14.40;99.90;;;;;;5016357;28;20301;-89
2021/12/31 12:54:02;;;;;;;2.93;2.63;;;14.50;99.90;;;;;;5016848;28;20179;-89
2021/12/31 12:56:28;;;;;;;3.10;2.80;;;14.60;99.90;;;;;;5016569;28;20274;-89
2021/12/31 12:59:02;;;;;;;4.63;4.23;;;14.50;99.90;;;;;;5016308;28;20301;-89
2021/12/31 13:01:42;;;;;;;3.57;2.30;;;14.50;99.90;;;;;;5016343;28;20213;-89
2021/12/31 13:04:11;;;;;;;3.70;2.70;;;14.40;99.90;;;;;;5016535;28;20202;-89
2021/12/31 13:06:39;;;;;;;3.07;2.50;;;14.40;99.90;;;;;;5016074;28;20242;-88
2021/12/31 13:09:06;;;;;;;3.00;2.73;;;14.30;99.90;;;;;;5016297;28;20178;-89
2021/12/31 13:11:37;;;;;;;3.20;2.73;;;14.20;99.90;;;;;;5016566;28;20354;-89
2021/12/31 13:14:15;;;;;;;3.07;2.57;;;14.20;99.90;;;;;;5016102;28;20199;-89